Nearby METAR Reports

 

LGTS - Thessaloniki/Mik, Greece
Distance from station: ΔΝΔ 66km
Ενημερώθηκε: 21/09/2017 16:50
Μερικώς νεφελώδης
Μερικώς νεφελώδης
 Ανεμος από ΔΒΔ
Ανεμος: ΔΒΔ 17 km/h
Θερμοκρασία: 25°C
Σημείο Δρόσου: 4°C
Υγρασία: 26%
Βαρόμετρο: 1010 hPa
Clouds: Μερικώς νεφελώδης
Visibility: 10 km
Cloud details: Μερικώς νεφελώδης 762 m
2017/09/21 13:50 LGTS 211350Z 29009KT 9999 SCT025 25/04 Q1010 NOSIG
LGKV - Kavala/Chrisoupo, Greece
Distance from station: ΑΒΑ 80km
Ενημερώθηκε: 21/09/2017 16:50
Few Clouds
Few Clouds
 Ανεμος από ΝΝΔ
Ανεμος: ΝΝΔ 28 km/h
Θερμοκρασία: 26°C
Σημείο Δρόσου: 10°C
Υγρασία: 37%
Βαρόμετρο: 1008 hPa
Clouds: Few Clouds
Visibility: 10 km
Cloud details: Few Clouds 914 m
2017/09/21 13:50 LGKV 211350Z 21015KT 9999 FEW030TCU 26/10 Q1008
LGLM - Limnos Island Ar, Greece
Distance from station: ΑΝΑ 157km
Ενημερώθηκε: 21/09/2017 16:50
Few Clouds
Few Clouds
 Ανεμος από ΔΝΔ
Ανεμος: ΔΝΔ 24 km/h
Θερμοκρασία: 25°C
Σημείο Δρόσου: 8°C
Υγρασία: 34%
Βαρόμετρο: 1010 hPa
Clouds: Few Clouds
Visibility: 10 km
Cloud details: Few Clouds 610 m
2017/09/21 13:50 LGLM 211350Z 24013KT 9999 FEW020 25/08 Q1010
 
LGKZ - Kozani (civ/Army, Greece
Distance from station: ΔΝΔ 165km
Ενημερώθηκε: 21/09/2017 14:50
NOT Current
Σχεδόν νεφελώδης
Σχεδόν νεφελώδης
 Ανεμος από ΝΔ
Ανεμος: ΝΔ 22 km/h
Θερμοκρασία: 21°C
Σημείο Δρόσου: 2°C
Υγρασία: 29%
Βαρόμετρο: 1014 hPa
Clouds: Σχεδόν νεφελώδης
Visibility: 10 km
Cloud details: Μερικώς νεφελώδης 914 m
Σχεδόν νεφελώδης 2134 m
2017/09/21 11:50 LGKZ 211150Z 23012KT 9999 SCT030 BKN070 21/02 Q1014
LGSK - Skiathos Island, Greece
Distance from station: Ν 171km
Ενημερώθηκε: 21/09/2017 16:50
Μερικώς νεφελώδης
Μερικώς νεφελώδης
 Ανεμος από ΒΑ
Ανεμος: ΒΑ 7 km/h
Θερμοκρασία: 26°C
Σημείο Δρόσου: 7°C
Υγρασία: 30%
Βαρόμετρο: 1010 hPa
Clouds: Μερικώς νεφελώδης
Visibility: 10 km
Cloud details: Μερικώς νεφελώδης 762 m
2017/09/21 13:50 LGSK 211350Z 04004KT 9999 SCT025 26/07 Q1010
LBPD - Plovdiv, Bulgaria
Distance from station: ΒΒΑ 182km
Ενημερώθηκε: 21/09/2017 17:00
Συννεφιά
Συννεφιά
 Ανεμος από ΒΔ
Ανεμος: ΒΔ 19 km/h
Θερμοκρασία: 20°C
Σημείο Δρόσου: 11°C
Υγρασία: 56%
Βαρόμετρο: 1010 hPa
Clouds: Συννεφιά
Visibility: 10 km
Cloud details: Συννεφιά 2164 m
2017/09/21 14:00 LBPD 211400Z AUTO 32010KT 9999 OVC071/// 20/11 Q1010 NOSIG
 
LGBL - Nea Anchialos, Greece
Distance from station: ΝΝΔ 184km
Ενημερώθηκε: 21/09/2017 16:50
Μερικώς νεφελώδης
Μερικώς νεφελώδης
 Ανεμος από Δ
Ανεμος: Δ 31 km/h
Θερμοκρασία: 27°C
Σημείο Δρόσου: 4°C
Υγρασία: 23%
Βαρόμετρο: 1010 hPa
Clouds: Μερικώς νεφελώδης
Visibility: 10 km
Cloud details: Μερικώς νεφελώδης 1067 m
2017/09/21 13:50 LGBL 211350Z 26017KT 9999 SCT035 27/04 Q1010
LGAL - Alexandroupolis, Greece
Distance from station: Α 190km
Ενημερώθηκε: 21/09/2017 16:50
Few Clouds
Few Clouds
 Ανεμος από ΝΔ
Ανεμος: ΝΔ 22 km/h
Θερμοκρασία: 26°C
Σημείο Δρόσου: 13°C
Υγρασία: 45%
Βαρόμετρο: 1009 hPa
Clouds: Few Clouds
Visibility: 10 km
Cloud details: Few Clouds 762 m
2017/09/21 13:50 LGAL 211350Z 22012KT 9999 FEW025 26/13 Q1009